Honea Path, South Carolina
Current Conditions -  °F | °C
As of 10:56 AM on Friday 24 Oct 2014 (Local Time) from KAND Reporting Station
Clear Clear  
Wind Chill: 16°   Ceiling: Unl
Heat Index: 16°   Visibility: 10mi
Dew Point:   Wind: 6mph
Humidity: 50%   Direction: 110°ESE
Pressure: 30.09"   Gusts: NA
Location:  34.45°N, 82.39°W
Report Text: KAND 241456Z AUTO 11005KT 10SM CLR 16/06 A3009 RMK AO2 SLP186 T01610056 51007
Loading
Personal Weather Stations






























Interactive Weather Map
Tropical Storm Tracking
New forecast layout! Learn more

10-Day Weather Forecast

Advertisements
Track Severe Weather on mobile